Terminal Aerodrome Forecast
Issued by NWS Portland, OR

Home | Current Version | Previous Version | Text Only | Print | Product List | Glossary On
Versions: 1 2 3 4 5 6 7 8 9 10 11 12 13
000
FTUS46 KPQR 281736
TAFSLE
TAF
KSLE 281736Z 2818/2918 VRB03KT P6SM BKN035 BKN060
     FM282000 33007KT P6SM SCT035 BKN060
     FM290300 29005KT P6SM SCT060
     FM290800 VRB03KT P6SM BKN040 BKN080
     FM291600 18006KT P6SM -RA BKN030 OVC050=

USA.gov is the U.S. government's official web portal to all federal, state and local government web resources and services.